createdAt,value
2022-10-22T00:02:07.669Z,8.17
2022-10-22T00:04:35.787Z,9.53
2022-10-22T00:07:03.765Z,10.67
2022-10-22T00:09:31.646Z,9.00
2022-10-22T00:11:59.354Z,9.67
2022-10-22T00:14:27.168Z,10.90
2022-10-22T00:16:56.322Z,9.90
2022-10-22T00:19:25.375Z,10.23
2022-10-22T00:21:53.171Z,9.53
2022-10-22T00:24:20.934Z,10.20
2022-10-22T00:26:48.715Z,10.53
2022-10-22T00:29:18.672Z,10.30
2022-10-22T00:31:49.745Z,10.83
2022-10-22T00:34:17.942Z,9.70
2022-10-22T00:36:47.326Z,10.73
2022-10-22T00:39:16.180Z,11.63
2022-10-22T00:41:44.288Z,11.13
2022-10-22T00:44:45.281Z,10.00
2022-10-22T00:47:13.465Z,10.57
2022-10-22T00:49:42.594Z,11.60
2022-10-22T00:52:12.465Z,10.10
2022-10-22T00:54:40.711Z,10.70
2022-10-22T00:57:08.593Z,9.00
2022-10-22T00:59:37.705Z,10.23
2022-10-22T01:02:05.493Z,10.50
2022-10-22T01:04:33.966Z,11.50
2022-10-22T01:07:02.074Z,10.63
2022-10-22T01:09:35.571Z,11.40
2022-10-22T01:12:06.329Z,10.23
2022-10-22T01:14:37.541Z,11.30
2022-10-22T01:17:08.184Z,10.50
2022-10-22T01:19:45.785Z,11.00
2022-10-22T01:22:19.855Z,11.47
2022-10-22T01:24:59.777Z,10.50
2022-10-22T01:27:33.456Z,12.60
2022-10-22T01:30:05.297Z,11.30
2022-10-22T01:32:37.598Z,11.87
2022-10-22T01:35:08.888Z,10.83
2022-10-22T01:37:39.777Z,12.00
2022-10-22T01:40:09.411Z,11.33
2022-10-22T01:42:37.162Z,12.37
2022-10-22T01:45:12.948Z,12.07
2022-10-22T01:47:48.319Z,12.03
2022-10-22T01:50:33.646Z,10.97
2022-10-22T01:53:27.500Z,11.97
2022-10-22T01:56:11.066Z,11.10
2022-10-22T01:58:43.786Z,10.20
2022-10-22T02:01:18.620Z,10.30
2022-10-22T02:03:49.777Z,9.97
2022-10-22T02:06:20.541Z,10.63
2022-10-22T02:08:49.901Z,11.10
2022-10-22T02:11:17.962Z,9.10
2022-10-22T02:13:47.873Z,11.13
2022-10-22T02:16:19.905Z,9.00
2022-10-22T02:18:50.338Z,9.90
2022-10-22T02:21:18.126Z,9.80
2022-10-22T02:23:46.678Z,9.60
2022-10-22T02:26:18.074Z,10.30
2022-10-22T02:28:50.736Z,10.40
2022-10-22T02:31:24.048Z,10.83
2022-10-22T02:33:54.246Z,10.23
2022-10-22T02:36:22.476Z,9.90
2022-10-22T02:38:52.301Z,9.30
2022-10-22T02:41:20.320Z,10.20
2022-10-22T02:43:51.970Z,9.00
2022-10-22T02:46:21.444Z,9.43
2022-10-22T02:48:49.160Z,9.03
2022-10-22T02:51:16.915Z,10.00
2022-10-22T02:53:44.629Z,9.87
2022-10-22T02:56:12.593Z,9.30
2022-10-22T02:58:40.372Z,10.10
2022-10-22T03:01:09.513Z,9.20
2022-10-22T03:03:41.355Z,10.17
2022-10-22T03:06:10.035Z,10.33
2022-10-22T03:08:37.775Z,10.67
2022-10-22T03:11:05.508Z,10.70
2022-10-22T03:13:33.228Z,9.80
2022-10-22T03:16:01.028Z,10.43
2022-10-22T03:18:29.060Z,10.10
2022-10-22T03:21:05.837Z,11.03
2022-10-22T03:23:33.910Z,10.47
2022-10-22T03:26:01.918Z,10.83
2022-10-22T03:28:29.908Z,9.80
2022-10-22T03:30:57.636Z,9.90
2022-10-22T03:33:25.336Z,11.20
2022-10-22T03:35:53.152Z,10.30
2022-10-22T03:38:22.350Z,9.73
2022-10-22T03:40:50.120Z,10.30
2022-10-22T03:43:18.108Z,9.80
2022-10-22T03:45:45.819Z,10.87
2022-10-22T03:48:13.510Z,10.40
2022-10-22T03:50:41.232Z,9.80
2022-10-22T03:53:10.572Z,11.10
2022-10-22T03:55:41.858Z,11.20
2022-10-22T03:58:09.568Z,10.70
2022-10-22T04:00:37.659Z,10.87
2022-10-22T04:03:05.714Z,11.23
2022-10-22T04:05:33.532Z,10.03
2022-10-22T04:08:01.769Z,11.47
2022-10-22T04:10:29.542Z,11.37
2022-10-22T04:12:58.806Z,10.87
2022-10-22T04:15:29.298Z,11.07
2022-10-22T04:17:57.190Z,10.90
2022-10-22T04:20:24.961Z,10.97
2022-10-22T04:22:52.671Z,10.57
2022-10-22T04:25:20.397Z,11.77
2022-10-22T04:27:48.112Z,9.23
2022-10-22T04:30:17.225Z,10.50
2022-10-22T04:32:44.967Z,11.00
2022-10-22T04:35:12.793Z,10.73
2022-10-22T04:37:40.560Z,12.03
2022-10-22T04:40:09.789Z,11.57
2022-10-22T04:42:37.603Z,11.03
2022-10-22T04:45:05.934Z,11.40
2022-10-22T04:47:34.974Z,10.60
2022-10-22T04:50:03.041Z,10.83
2022-10-22T04:52:32.220Z,10.00
2022-10-22T04:54:59.897Z,9.07
2022-10-22T04:57:30.961Z,10.53
2022-10-22T04:59:58.672Z,10.30
2022-10-22T05:02:26.437Z,12.00
2022-10-22T05:04:55.481Z,10.97
2022-10-22T05:07:23.751Z,12.17
2022-10-22T05:09:51.425Z,11.27
2022-10-22T05:12:19.154Z,11.60
2022-10-22T05:14:46.874Z,12.30
2022-10-22T05:17:14.664Z,11.57
2022-10-22T05:19:42.354Z,10.80
2022-10-22T05:22:11.467Z,11.00
2022-10-22T05:24:39.256Z,11.25
2022-10-22T05:27:07.016Z,10.70
2022-10-22T05:29:34.821Z,10.47
2022-10-22T05:32:02.493Z,13.40
2022-10-22T05:34:30.233Z,10.77
2022-10-22T05:36:57.964Z,11.10
2022-10-22T05:39:27.235Z,12.47
2022-10-22T05:41:54.946Z,11.90
2022-10-22T05:44:22.667Z,12.37
2022-10-22T05:46:50.410Z,11.87
2022-10-22T05:49:18.127Z,11.07
2022-10-22T05:51:47.987Z,11.90
2022-10-22T05:54:18.867Z,10.60
2022-10-22T05:56:48.053Z,11.67
2022-10-22T05:59:15.768Z,10.13
2022-10-22T06:01:44.333Z,10.80
2022-10-22T06:04:13.741Z,10.37
2022-10-22T06:06:44.430Z,10.10
2022-10-22T06:09:16.046Z,10.53
2022-10-22T06:11:43.918Z,10.40
2022-10-22T06:14:13.337Z,9.20
2022-10-22T06:16:41.639Z,10.03
2022-10-22T06:19:10.526Z,9.30
2022-10-22T06:21:38.649Z,10.57
2022-10-22T06:24:07.448Z,10.10
2022-10-22T06:26:35.145Z,9.27
2022-10-22T06:29:03.701Z,9.93
2022-10-22T06:31:36.692Z,10.23
2022-10-22T06:34:04.902Z,8.97
2022-10-22T06:36:32.812Z,9.10
2022-10-22T06:39:00.591Z,9.47
2022-10-22T06:41:28.906Z,8.80
2022-10-22T06:43:58.306Z,8.63
2022-10-22T06:46:26.557Z,8.80
2022-10-22T06:48:57.521Z,8.70
2022-10-22T06:51:25.509Z,9.20
2022-10-22T06:53:54.076Z,9.20
2022-10-22T06:56:23.129Z,10.83
2022-10-22T06:58:51.696Z,10.13
2022-10-22T07:01:21.604Z,11.63
2022-10-22T07:03:51.391Z,10.40
2022-10-22T07:06:21.388Z,9.23
2022-10-22T07:08:49.512Z,8.77
2022-10-22T07:11:19.024Z,9.10
2022-10-22T07:13:47.658Z,8.63
2022-10-22T07:16:16.124Z,44.13
2022-10-22T07:18:44.572Z,12.63
2022-10-22T07:21:13.669Z,9.47
2022-10-22T07:23:42.862Z,8.90
2022-10-22T07:26:10.918Z,10.00
2022-10-22T07:28:39.868Z,16.07
2022-10-22T07:31:08.418Z,13.03
2022-10-22T07:33:36.771Z,13.80
2022-10-22T07:36:06.686Z,10.10
2022-10-22T07:38:34.995Z,7.80
2022-10-22T07:41:15.587Z,8.30
2022-10-22T07:43:43.805Z,8.30
2022-10-22T07:46:11.828Z,7.60
2022-10-22T07:48:44.566Z,9.10
2022-10-22T07:51:12.346Z,9.80
2022-10-22T07:53:40.299Z,9.03
2022-10-22T07:56:09.753Z,9.07
2022-10-22T07:58:37.609Z,8.37
2022-10-22T08:01:06.552Z,8.67
2022-10-22T08:03:34.785Z,9.47
2022-10-22T08:06:02.867Z,8.50
2022-10-22T08:08:31.231Z,7.97
2022-10-22T08:11:01.852Z,8.77
2022-10-22T08:13:31.636Z,8.50
2022-10-22T08:16:00.265Z,9.13
2022-10-22T08:18:28.765Z,7.90
2022-10-22T08:20:56.673Z,7.77
2022-10-22T08:23:27.462Z,8.50
2022-10-22T08:25:57.251Z,9.27
2022-10-22T08:28:25.099Z,10.13
2022-10-22T08:30:54.269Z,8.83
2022-10-22T08:33:22.326Z,8.87
2022-10-22T08:35:50.611Z,8.53
2022-10-22T08:38:18.614Z,8.33
2022-10-22T08:40:50.835Z,9.87
2022-10-22T08:43:37.828Z,8.90
2022-10-22T08:46:15.490Z,8.97
2022-10-22T08:48:46.944Z,8.40
2022-10-22T08:51:18.321Z,8.57
2022-10-22T08:53:54.999Z,8.83
2022-10-22T08:56:23.506Z,7.83
2022-10-22T08:58:56.649Z,8.37
2022-10-22T09:01:32.764Z,7.93
2022-10-22T09:04:04.677Z,8.10
2022-10-22T09:06:34.641Z,8.30
2022-10-22T09:09:06.503Z,7.80
2022-10-22T09:11:36.181Z,8.57
2022-10-22T09:14:04.419Z,7.97
2022-10-22T09:16:38.422Z,7.17
2022-10-22T09:19:16.683Z,7.03
2022-10-22T09:21:53.359Z,7.23
2022-10-22T09:24:32.171Z,6.87
2022-10-22T09:27:01.953Z,6.53
2022-10-22T09:29:34.066Z,6.90
2022-10-22T09:32:03.344Z,7.30
2022-10-22T09:34:31.202Z,7.00
2022-10-22T09:36:59.909Z,7.30
2022-10-22T09:39:29.591Z,6.70
2022-10-22T09:41:57.289Z,5.83
2022-10-22T09:44:25.207Z,6.67
2022-10-22T09:46:52.913Z,7.30
2022-10-22T09:49:23.954Z,6.83
2022-10-22T09:51:54.507Z,6.30
2022-10-22T09:54:24.470Z,7.20
2022-10-22T09:56:57.911Z,5.93
2022-10-22T09:59:29.277Z,7.37
2022-10-22T10:02:13.328Z,6.63
2022-10-22T10:04:50.882Z,6.30
2022-10-22T10:07:20.373Z,6.17
2022-10-22T10:09:48.560Z,5.93
2022-10-22T10:12:25.013Z,6.53
2022-10-22T10:15:01.851Z,6.20
2022-10-22T10:17:35.042Z,6.83
2022-10-22T10:20:17.150Z,6.17
2022-10-22T10:22:54.879Z,6.70
2022-10-22T10:25:44.112Z,6.53
2022-10-22T10:28:23.165Z,6.10
2022-10-22T10:30:56.076Z,7.10
2022-10-22T10:33:31.290Z,6.10
2022-10-22T10:36:05.124Z,6.70
2022-10-22T10:38:39.325Z,6.30
2022-10-22T10:41:14.966Z,6.13
2022-10-22T10:43:53.705Z,6.57
2022-10-22T10:46:26.821Z,6.87
2022-10-22T10:48:56.954Z,6.15
2022-10-22T10:51:39.373Z,6.07
2022-10-22T10:54:21.071Z,6.67
2022-10-22T10:56:53.010Z,6.20
2022-10-22T10:59:32.352Z,8.20
2022-10-22T11:02:35.029Z,6.60
2022-10-22T11:05:23.724Z,6.40
2022-10-22T11:07:57.168Z,5.93
2022-10-22T11:10:32.470Z,7.20
2022-10-22T11:13:05.010Z,6.20
2022-10-22T11:15:34.461Z,7.73
2022-10-22T11:18:09.338Z,7.15
2022-10-22T11:20:45.964Z,5.90
2022-10-22T11:23:20.529Z,5.73
2022-10-22T11:25:50.230Z,6.30
2022-10-22T11:28:21.336Z,6.33
2022-10-22T11:30:52.464Z,5.40
2022-10-22T11:33:23.456Z,5.00
2022-10-22T11:35:51.589Z,4.73
2022-10-22T11:38:23.882Z,6.10
2022-10-22T11:40:58.410Z,5.83
2022-10-22T11:43:32.914Z,4.87
2022-10-22T11:46:10.514Z,5.33
2022-10-22T11:48:39.330Z,4.83
2022-10-22T11:51:35.383Z,4.53
2022-10-22T11:54:04.679Z,4.70
2022-10-22T11:56:38.452Z,5.00
2022-10-22T11:59:13.957Z,4.40
2022-10-22T12:01:43.060Z,4.60
2022-10-22T12:04:23.187Z,4.00
2022-10-22T12:06:59.052Z,3.50
2022-10-22T12:09:30.258Z,4.47
2022-10-22T12:12:04.355Z,4.10
2022-10-22T12:14:35.357Z,3.90
2022-10-22T12:17:08.660Z,3.10
2022-10-22T12:19:38.401Z,3.70
2022-10-22T12:22:15.139Z,3.43
2022-10-22T12:24:45.585Z,3.77
2022-10-22T12:27:22.333Z,2.67
2022-10-22T12:29:56.033Z,2.73
2022-10-22T12:32:24.121Z,2.60
2022-10-22T12:34:53.145Z,2.10
2022-10-22T12:37:22.197Z,2.57
2022-10-22T12:39:49.970Z,2.57
2022-10-22T12:42:18.910Z,2.20
2022-10-22T12:44:46.641Z,2.43
2022-10-22T12:47:17.240Z,2.33
2022-10-22T12:49:47.062Z,2.13
2022-10-22T12:52:17.396Z,2.17
2022-10-22T12:54:48.230Z,2.47
2022-10-22T12:57:18.858Z,2.17
2022-10-22T12:59:49.928Z,2.10
2022-10-22T13:02:21.738Z,2.00
2022-10-22T13:05:15.162Z,1.80
2022-10-22T13:07:45.335Z,1.70
2022-10-22T13:10:20.745Z,1.40
2022-10-22T13:12:52.330Z,2.30
2022-10-22T13:15:22.412Z,1.60
2022-10-22T13:17:50.587Z,1.50
2022-10-22T13:20:21.580Z,1.70
2022-10-22T13:23:00.047Z,1.70
2022-10-22T13:25:33.880Z,1.40
2022-10-22T13:28:04.032Z,1.30
2022-10-22T13:30:33.518Z,1.30
2022-10-22T13:33:02.952Z,1.80
2022-10-22T13:35:34.318Z,0.90
2022-10-22T13:38:02.150Z,1.63
2022-10-22T13:40:31.357Z,1.70
2022-10-22T13:42:59.116Z,1.37
2022-10-22T13:45:26.883Z,1.63
2022-10-22T13:47:55.725Z,1.77
2022-10-22T13:50:23.434Z,1.80
2022-10-22T13:52:52.762Z,1.40
2022-10-22T13:55:23.321Z,1.50
2022-10-22T13:57:52.583Z,1.20
2022-10-22T14:00:21.735Z,1.70
2022-10-22T14:02:51.753Z,1.80
2022-10-22T14:05:20.591Z,1.30
2022-10-22T14:07:48.502Z,1.33
2022-10-22T14:10:19.250Z,1.93
2022-10-22T14:12:52.306Z,1.57
2022-10-22T14:15:24.804Z,1.50
2022-10-22T14:17:55.110Z,1.73
2022-10-22T14:20:24.341Z,1.60
2022-10-22T14:22:52.267Z,1.30
2022-10-22T14:25:21.672Z,1.20
2022-10-22T14:27:49.703Z,1.17
2022-10-22T14:30:18.450Z,1.60
2022-10-22T14:32:48.787Z,1.50
2022-10-22T14:35:18.461Z,1.60
2022-10-22T14:37:46.233Z,1.30
2022-10-22T14:40:15.512Z,1.00
2022-10-22T14:42:44.581Z,1.60
2022-10-22T14:45:16.979Z,1.67
2022-10-22T14:47:44.767Z,1.23
2022-10-22T14:50:14.545Z,1.70
2022-10-22T14:52:43.544Z,1.73
2022-10-22T14:55:11.907Z,1.73
2022-10-22T14:57:40.433Z,1.67
2022-10-22T15:00:11.429Z,1.30
2022-10-22T15:02:39.414Z,1.57
2022-10-22T15:05:08.532Z,2.10
2022-10-22T15:07:38.272Z,1.40
2022-10-22T15:10:07.979Z,1.20
2022-10-22T15:12:35.796Z,1.23
2022-10-22T15:15:03.709Z,1.30
2022-10-22T15:17:31.467Z,1.40
2022-10-22T15:20:00.526Z,1.33
2022-10-22T15:22:28.678Z,1.60
2022-10-22T15:24:57.773Z,1.63
2022-10-22T15:27:25.575Z,2.10
2022-10-22T15:29:53.610Z,1.73
2022-10-22T15:32:21.330Z,1.80
2022-10-22T15:34:49.321Z,1.90
2022-10-22T15:37:17.037Z,1.90
2022-10-22T15:39:44.743Z,2.00
2022-10-22T15:42:14.796Z,2.30
2022-10-22T15:44:43.043Z,1.80
2022-10-22T15:47:10.797Z,2.53
2022-10-22T15:49:41.706Z,1.73
2022-10-22T15:52:09.992Z,1.73
2022-10-22T15:54:37.725Z,1.77
2022-10-22T15:57:08.571Z,1.60
2022-10-22T15:59:37.796Z,1.67
2022-10-22T16:02:07.304Z,2.20
2022-10-22T16:04:35.058Z,1.70
2022-10-22T16:07:03.517Z,1.83
2022-10-22T16:09:31.382Z,2.07
2022-10-22T16:11:59.183Z,2.95
2022-10-22T16:14:28.671Z,2.10
2022-10-22T16:16:59.548Z,2.77
2022-10-22T16:19:27.319Z,3.30
2022-10-22T16:21:56.555Z,3.10
2022-10-22T16:24:24.480Z,3.20
2022-10-22T16:26:53.264Z,4.30
2022-10-22T16:29:21.085Z,3.80
2022-10-22T16:31:48.812Z,3.87
2022-10-22T16:34:17.868Z,3.60
2022-10-22T16:36:45.700Z,3.87
2022-10-22T16:39:13.536Z,4.00
2022-10-22T16:41:41.284Z,14.00
2022-10-22T16:44:09.064Z,4.47
2022-10-22T16:46:38.431Z,3.17
2022-10-22T16:49:07.621Z,4.30
2022-10-22T16:51:37.298Z,4.10
2022-10-22T16:54:08.120Z,3.60
2022-10-22T16:56:39.123Z,4.93
2022-10-22T16:59:07.342Z,4.40
2022-10-22T17:01:40.350Z,4.80
2022-10-22T17:04:08.839Z,4.00
2022-10-22T17:06:37.938Z,4.17
2022-10-22T17:09:06.001Z,4.17
2022-10-22T17:11:36.363Z,4.50
2022-10-22T17:14:06.087Z,5.17
2022-10-22T17:16:33.821Z,4.93
2022-10-22T17:19:03.955Z,4.90
2022-10-22T17:21:31.875Z,3.80
2022-10-22T17:24:00.932Z,4.40
2022-10-22T17:26:28.621Z,4.17
2022-10-22T17:28:56.396Z,4.03
2022-10-22T17:31:25.760Z,4.40
2022-10-22T17:33:55.532Z,4.80
2022-10-22T17:36:24.290Z,6.77
2022-10-22T17:38:53.668Z,4.80
2022-10-22T17:41:24.295Z,4.00
2022-10-22T17:43:52.230Z,4.43
2022-10-22T17:46:21.451Z,8.37
2022-10-22T17:48:52.834Z,4.87
2022-10-22T17:51:21.371Z,4.40
2022-10-22T17:53:50.189Z,5.27
2022-10-22T17:56:19.746Z,5.20
2022-10-22T17:58:48.933Z,4.70
2022-10-22T18:01:21.576Z,4.30
2022-10-22T18:03:49.840Z,4.20
2022-10-22T18:06:17.712Z,5.07
2022-10-22T18:08:45.860Z,5.20
2022-10-22T18:11:17.659Z,4.50
2022-10-22T18:13:47.559Z,5.40
2022-10-22T18:16:16.599Z,7.03
2022-10-22T18:18:46.223Z,4.90
2022-10-22T18:21:14.457Z,4.27
2022-10-22T18:23:42.387Z,4.60
2022-10-22T18:26:10.237Z,3.93
2022-10-22T18:28:38.216Z,4.10
2022-10-22T18:31:07.202Z,4.60
2022-10-22T18:33:36.900Z,3.43
2022-10-22T18:36:05.912Z,4.23
2022-10-22T18:38:34.043Z,4.10
2022-10-22T18:41:01.877Z,4.40
2022-10-22T18:43:29.629Z,4.90
2022-10-22T18:45:57.395Z,4.07
2022-10-22T18:48:25.266Z,3.70
2022-10-22T18:51:01.813Z,3.87
2022-10-22T18:53:29.771Z,3.37
2022-10-22T18:55:57.496Z,3.47
2022-10-22T18:58:25.281Z,3.93
2022-10-22T19:00:53.104Z,3.70
2022-10-22T19:03:20.957Z,4.50
2022-10-22T19:05:50.900Z,3.07
2022-10-22T19:08:20.834Z,3.93
2022-10-22T19:10:49.085Z,4.20
2022-10-22T19:13:18.857Z,4.60
2022-10-22T19:15:46.635Z,3.30
2022-10-22T19:18:15.051Z,3.90
2022-10-22T19:20:44.418Z,4.37
2022-10-22T19:23:12.193Z,3.40
2022-10-22T19:25:41.583Z,3.30
2022-10-22T19:28:09.341Z,3.80
2022-10-22T19:30:37.123Z,3.30
2022-10-22T19:33:04.913Z,3.80
2022-10-22T19:35:32.657Z,3.23
2022-10-22T19:38:00.437Z,3.00
2022-10-22T19:40:28.586Z,3.97
2022-10-22T19:42:57.630Z,3.50
2022-10-22T19:45:25.374Z,3.63
2022-10-22T19:47:53.116Z,5.57
2022-10-22T19:50:20.991Z,3.63
2022-10-22T19:52:48.716Z,3.87
2022-10-22T19:55:16.562Z,3.80
2022-10-22T19:57:44.622Z,3.63
2022-10-22T20:00:14.770Z,5.00
2022-10-22T20:02:42.636Z,3.87
2022-10-22T20:05:10.970Z,3.93
2022-10-22T20:07:38.977Z,3.43
2022-10-22T20:10:07.519Z,4.50
2022-10-22T20:12:35.328Z,4.10
2022-10-22T20:15:04.337Z,4.43
2022-10-22T20:17:33.953Z,4.50
2022-10-22T20:20:01.674Z,4.40
2022-10-22T20:22:29.398Z,5.30
2022-10-22T20:24:57.076Z,4.10
2022-10-22T20:27:25.291Z,4.20
2022-10-22T20:29:53.300Z,4.00
2022-10-22T20:32:22.056Z,4.80
2022-10-22T20:34:51.120Z,4.67
2022-10-22T20:37:18.843Z,5.00
2022-10-22T20:39:46.530Z,4.40
2022-10-22T20:42:15.399Z,4.63
2022-10-22T20:44:43.148Z,4.90
2022-10-22T20:47:13.630Z,5.00
2022-10-22T20:49:41.594Z,5.00
2022-10-22T20:52:10.709Z,4.10
2022-10-22T20:54:41.446Z,4.67
2022-10-22T20:57:09.550Z,5.40
2022-10-22T20:59:37.346Z,5.10
2022-10-22T21:02:05.465Z,4.23
2022-10-22T21:04:33.496Z,4.40
2022-10-22T21:07:02.894Z,4.80
2022-10-22T21:09:34.162Z,4.60
2022-10-22T21:12:03.490Z,4.13
2022-10-22T21:14:31.344Z,4.03
2022-10-22T21:17:00.216Z,3.60
2022-10-22T21:19:28.709Z,4.10
2022-10-22T21:21:56.408Z,3.80
2022-10-22T21:24:26.209Z,4.40
2022-10-22T21:26:55.264Z,3.63
2022-10-22T21:29:23.018Z,4.00
2022-10-22T21:31:50.693Z,3.80
2022-10-22T21:34:18.455Z,4.90
2022-10-22T21:39:14.948Z,4.10
2022-10-22T21:41:42.668Z,4.40
2022-10-22T21:44:11.783Z,3.70
2022-10-22T21:46:39.497Z,3.50
2022-10-22T21:49:07.261Z,3.70
2022-10-22T21:51:38.085Z,4.30
2022-10-22T21:54:06.284Z,3.10
2022-10-22T21:56:36.600Z,2.87
2022-10-22T21:59:05.236Z,3.60
2022-10-22T22:01:34.766Z,2.93
2022-10-22T22:04:04.219Z,3.90
2022-10-22T22:06:33.670Z,3.47
2022-10-22T22:09:02.990Z,3.17
2022-10-22T22:11:31.366Z,4.00
2022-10-22T22:13:59.830Z,3.80
2022-10-22T22:16:29.134Z,4.20
2022-10-22T22:19:00.451Z,4.43
2022-10-22T22:21:28.580Z,4.27
2022-10-22T22:23:56.497Z,3.60
2022-10-22T22:26:28.591Z,4.20
2022-10-22T22:28:58.535Z,3.53
2022-10-22T22:31:27.924Z,3.10
2022-10-22T22:34:01.076Z,3.57
2022-10-22T22:36:28.925Z,3.40
2022-10-22T22:38:56.943Z,4.10
2022-10-22T22:41:24.936Z,3.90
2022-10-22T22:43:52.770Z,3.60
2022-10-22T22:46:20.608Z,3.70
2022-10-22T22:48:48.670Z,3.83
2022-10-22T22:51:17.952Z,3.97
2022-10-22T22:53:45.778Z,3.63
2022-10-22T22:56:15.166Z,4.17
2022-10-22T22:58:43.034Z,4.23
2022-10-22T23:01:15.774Z,4.50
2022-10-22T23:03:45.612Z,4.90
2022-10-22T23:06:13.737Z,3.97
2022-10-22T23:08:43.222Z,3.83
2022-10-22T23:11:12.427Z,3.60
2022-10-22T23:13:40.623Z,4.20
2022-10-22T23:16:09.836Z,5.10
2022-10-22T23:18:37.502Z,4.57
2022-10-22T23:21:06.501Z,4.37
2022-10-22T23:23:34.589Z,4.30
2022-10-22T23:26:03.954Z,4.30
2022-10-22T23:28:31.771Z,4.40
2022-10-22T23:30:59.497Z,4.50
2022-10-22T23:33:27.576Z,5.27
2022-10-22T23:43:23.716Z,4.30
2022-10-22T23:45:51.475Z,4.20
2022-10-22T23:48:19.656Z,4.90
2022-10-22T23:50:47.709Z,4.37
2022-10-22T23:53:15.706Z,6.03
2022-10-22T23:55:44.575Z,5.53
2022-10-22T23:58:12.690Z,4.57
